createdAt,value
2019-05-21T00:02:27.863Z,116.80
2019-05-21T00:05:19.440Z,116.55
2019-05-21T00:08:06.476Z,102.12
2019-05-21T00:10:35.108Z,111.40
2019-05-21T00:13:15.811Z,121.92
2019-05-21T00:15:49.710Z,119.17
2019-05-21T00:18:25.321Z,125.22
2019-05-21T00:21:09.095Z,113.47
2019-05-21T00:23:43.532Z,119.40
2019-05-21T00:26:22.093Z,118.65
2019-05-21T00:29:29.912Z,111.00
2019-05-21T00:32:36.716Z,102.78
2019-05-21T00:35:49.484Z,91.45
2019-05-21T00:38:57.895Z,112.52
2019-05-21T00:42:11.940Z,105.83
2019-05-21T00:44:43.985Z,96.65
2019-05-21T00:47:32.381Z,98.27
2019-05-21T00:50:07.024Z,97.45
2019-05-21T00:52:43.606Z,87.15
2019-05-21T00:55:40.491Z,94.37
2019-05-21T00:58:31.345Z,95.17
2019-05-21T01:01:05.930Z,89.20
2019-05-21T01:03:44.633Z,98.03
2019-05-21T01:06:20.562Z,109.03
2019-05-21T01:08:55.056Z,105.22
2019-05-21T01:11:29.856Z,108.80
2019-05-21T01:14:01.633Z,117.35
2019-05-21T01:16:39.383Z,122.80
2019-05-21T01:19:10.865Z,109.67
2019-05-21T01:21:42.842Z,105.32
2019-05-21T01:24:14.294Z,112.35
2019-05-21T01:26:45.677Z,113.77
2019-05-21T01:29:16.920Z,113.60
2019-05-21T01:32:04.373Z,120.47
2019-05-21T01:34:42.925Z,117.60
2019-05-21T01:37:12.572Z,134.27
2019-05-21T01:39:44.259Z,119.90
2019-05-21T01:45:01.150Z,111.03
2019-05-21T01:47:42.673Z,113.17
2019-05-21T01:50:14.419Z,111.03
2019-05-21T01:52:48.252Z,104.38
2019-05-21T01:55:16.831Z,112.05
2019-05-21T01:57:48.210Z,107.22
2019-05-21T02:00:19.789Z,113.37
2019-05-21T02:05:32.741Z,103.62
2019-05-21T02:08:02.794Z,112.32
2019-05-21T02:11:01.636Z,117.00
2019-05-21T02:13:32.415Z,112.77
2019-05-21T02:16:07.451Z,110.40
2019-05-21T02:18:42.617Z,113.90
2019-05-21T02:21:17.112Z,111.12
2019-05-21T02:23:53.443Z,121.95
2019-05-21T02:26:24.857Z,115.03
2019-05-21T02:28:59.194Z,115.60
2019-05-21T02:31:44.295Z,117.40
2019-05-21T02:34:12.961Z,129.35
2019-05-21T02:36:51.084Z,127.42
2019-05-21T02:39:20.567Z,128.23
2019-05-21T02:41:51.852Z,123.97
2019-05-21T02:44:23.612Z,123.47
2019-05-21T02:46:53.337Z,121.10
2019-05-21T02:49:34.035Z,125.35
2019-05-21T02:52:02.712Z,125.05
2019-05-21T02:54:49.892Z,130.57
2019-05-21T02:57:43.868Z,130.72
2019-05-21T03:00:38.774Z,130.07
2019-05-21T03:03:35.404Z,130.32
2019-05-21T03:06:13.871Z,121.37
2019-05-21T03:08:42.321Z,136.68
2019-05-21T03:11:13.023Z,138.70
2019-05-21T03:13:42.661Z,135.60
2019-05-21T03:16:17.609Z,131.30
2019-05-21T03:18:49.182Z,136.30
2019-05-21T03:23:52.632Z,130.35
2019-05-21T03:26:22.196Z,129.45
2019-05-21T03:28:50.850Z,137.12
2019-05-21T03:31:39.196Z,133.65
2019-05-21T03:34:13.830Z,135.25
2019-05-21T03:36:49.386Z,129.05
2019-05-21T03:39:20.635Z,128.42
2019-05-21T03:41:52.332Z,124.75
2019-05-21T03:44:24.002Z,117.67
2019-05-21T03:49:33.251Z,122.65
2019-05-21T03:52:10.927Z,107.15
2019-05-21T03:54:40.545Z,112.37
2019-05-21T03:57:17.972Z,112.03
2019-05-21T03:59:52.448Z,104.40
2019-05-21T04:02:20.958Z,99.55
2019-05-21T04:04:52.253Z,89.83
2019-05-21T04:07:20.926Z,88.25
2019-05-21T04:09:51.622Z,85.07
2019-05-21T04:12:26.113Z,76.33
2019-05-21T04:15:05.668Z,81.65
2019-05-21T04:17:38.485Z,73.62
2019-05-21T04:20:09.459Z,70.90
2019-05-21T04:22:39.708Z,67.10
2019-05-21T04:25:23.152Z,62.05
2019-05-21T04:27:51.845Z,63.90
2019-05-21T04:30:23.080Z,61.28
2019-05-21T04:32:54.296Z,62.93
2019-05-21T04:35:34.997Z,64.58
2019-05-21T04:38:12.677Z,59.53
2019-05-21T04:40:42.252Z,60.92
2019-05-21T04:43:18.959Z,58.10
2019-05-21T04:45:54.876Z,62.55
2019-05-21T04:48:36.542Z,55.55
2019-05-21T04:51:08.182Z,56.23
2019-05-21T04:53:36.775Z,55.25
2019-05-21T04:56:06.367Z,56.30
2019-05-21T04:58:37.996Z,48.65
2019-05-21T05:03:34.466Z,46.20
2019-05-21T05:06:05.139Z,51.37
2019-05-21T05:08:36.355Z,52.10
2019-05-21T05:11:05.948Z,51.18
2019-05-21T05:13:37.562Z,48.75
2019-05-21T05:18:57.532Z,43.78
2019-05-21T05:21:29.223Z,49.48
2019-05-21T05:23:58.695Z,46.10
2019-05-21T05:26:46.984Z,47.17
2019-05-21T05:29:19.368Z,44.65
2019-05-21T05:31:50.726Z,47.38
2019-05-21T05:34:22.001Z,47.00
2019-05-21T05:36:56.489Z,47.58
2019-05-21T05:39:25.263Z,43.68
2019-05-21T05:41:57.945Z,40.28
2019-05-21T05:44:27.511Z,42.83
2019-05-21T05:47:08.337Z,39.60
2019-05-21T05:49:39.578Z,42.87
2019-05-21T05:52:10.909Z,45.23
2019-05-21T05:54:39.512Z,39.70
2019-05-21T05:57:21.908Z,38.67
2019-05-21T05:59:53.700Z,37.65
2019-05-21T06:02:24.402Z,42.60
2019-05-21T06:04:59.436Z,38.97
2019-05-21T06:07:28.216Z,42.20
2019-05-21T06:10:05.950Z,37.13
2019-05-21T06:12:45.091Z,37.73
2019-05-21T06:15:26.140Z,37.08
2019-05-21T06:17:57.345Z,41.77
2019-05-21T06:20:31.737Z,32.93
2019-05-21T06:23:01.349Z,33.92
2019-05-21T06:25:35.857Z,29.10
2019-05-21T06:28:06.601Z,28.60
2019-05-21T06:30:37.918Z,30.30
2019-05-21T06:33:06.678Z,32.90
2019-05-21T06:35:40.628Z,29.18
2019-05-21T06:38:17.550Z,35.33
2019-05-21T06:40:51.529Z,34.40
2019-05-21T06:43:25.936Z,32.65
2019-05-21T06:46:00.441Z,35.25
2019-05-21T06:48:32.140Z,34.75
2019-05-21T06:51:00.797Z,33.83
2019-05-21T06:53:29.395Z,31.65
2019-05-21T06:56:00.076Z,34.63
2019-05-21T06:58:31.568Z,31.95
2019-05-21T07:03:42.294Z,32.25
2019-05-21T07:06:16.896Z,37.48
2019-05-21T07:08:58.635Z,34.03
2019-05-21T07:13:56.112Z,34.75
2019-05-21T07:16:30.863Z,36.73
2019-05-21T07:19:03.330Z,33.58
2019-05-21T07:21:34.729Z,33.65
2019-05-21T07:24:09.348Z,41.40
2019-05-21T07:26:40.833Z,37.85
2019-05-21T07:29:12.234Z,37.05
2019-05-21T07:31:48.893Z,33.90
2019-05-21T07:34:36.255Z,44.65
2019-05-21T07:37:18.124Z,35.58
2019-05-21T07:39:54.923Z,33.95
2019-05-21T07:42:26.305Z,35.65
2019-05-21T07:44:57.736Z,33.92
2019-05-21T07:47:27.547Z,34.18
2019-05-21T07:49:59.307Z,33.70
2019-05-21T07:52:33.956Z,34.15
2019-05-21T07:55:08.666Z,29.35
2019-05-21T07:57:52.240Z,33.08
2019-05-21T08:00:21.249Z,39.90
2019-05-21T08:02:57.739Z,36.38
2019-05-21T08:05:48.768Z,34.90
2019-05-21T08:08:28.519Z,38.90
2019-05-21T08:11:29.293Z,30.23
2019-05-21T08:14:14.726Z,33.10
2019-05-21T08:16:43.358Z,30.75
2019-05-21T08:19:14.641Z,30.82
2019-05-21T08:21:49.083Z,26.55
2019-05-21T08:24:21.456Z,25.68
2019-05-21T08:26:50.095Z,25.15
2019-05-21T08:29:24.579Z,28.65
2019-05-21T08:31:53.258Z,28.70
2019-05-21T08:34:25.039Z,28.52
2019-05-21T08:36:59.695Z,21.87
2019-05-21T08:39:31.091Z,21.00
2019-05-21T08:42:09.781Z,20.32
2019-05-21T08:44:47.287Z,22.55
2019-05-21T08:47:51.473Z,19.00
2019-05-21T08:50:30.663Z,18.85
2019-05-21T08:53:06.370Z,19.60
2019-05-21T08:55:40.884Z,20.68
2019-05-21T08:58:15.253Z,19.37
2019-05-21T09:00:49.955Z,19.35
2019-05-21T09:03:20.575Z,19.65
2019-05-21T09:05:54.971Z,19.87
2019-05-21T09:08:26.583Z,20.60
2019-05-21T09:10:55.499Z,19.32
2019-05-21T09:13:26.879Z,14.15
2019-05-21T09:18:23.475Z,19.95
2019-05-21T09:20:57.810Z,19.25
2019-05-21T09:23:29.490Z,20.40
2019-05-21T09:26:08.412Z,19.55
2019-05-21T09:28:39.172Z,22.82
2019-05-21T09:31:13.902Z,17.90
2019-05-21T09:33:45.551Z,21.20
2019-05-21T09:36:19.922Z,19.87
2019-05-21T09:39:00.463Z,19.62
2019-05-21T09:41:35.036Z,24.27
2019-05-21T09:44:04.536Z,20.00
2019-05-21T09:46:33.209Z,19.17
2019-05-21T09:49:18.478Z,20.50
2019-05-21T09:51:50.159Z,19.77
2019-05-21T09:54:27.888Z,20.12
2019-05-21T09:56:57.570Z,20.95
2019-05-21T09:59:27.949Z,18.90
2019-05-21T10:02:04.034Z,20.20
2019-05-21T10:04:34.723Z,21.05
2019-05-21T10:07:09.510Z,18.50
2019-05-21T10:09:41.461Z,17.75
2019-05-21T10:12:13.269Z,19.57
2019-05-21T10:15:02.057Z,17.17
2019-05-21T10:17:30.967Z,21.48
2019-05-21T10:19:59.677Z,19.98
2019-05-21T10:22:30.265Z,19.12
2019-05-21T10:25:17.262Z,21.05
2019-05-21T10:27:48.653Z,20.77
2019-05-21T10:30:18.439Z,20.62
2019-05-21T10:32:49.154Z,19.87
2019-05-21T10:35:20.938Z,18.48
2019-05-21T10:38:04.518Z,22.62
2019-05-21T10:40:36.442Z,18.30
2019-05-21T10:43:13.591Z,16.70
2019-05-21T10:45:45.378Z,14.63
2019-05-21T10:48:21.033Z,17.27
2019-05-21T10:51:41.385Z,18.50
2019-05-21T10:54:20.989Z,18.27
2019-05-21T10:56:55.594Z,14.80
2019-05-21T10:59:24.375Z,16.77
2019-05-21T11:02:05.784Z,15.45
2019-05-21T11:07:15.729Z,17.30
2019-05-21T11:09:46.322Z,14.18
2019-05-21T11:12:16.691Z,14.18
2019-05-21T11:14:45.281Z,14.63
2019-05-21T11:17:17.872Z,17.37
2019-05-21T11:19:50.667Z,10.93
2019-05-21T11:25:33.148Z,18.67
2019-05-21T11:28:03.920Z,16.35
2019-05-21T11:30:37.843Z,13.93
2019-05-21T11:33:08.506Z,11.12
2019-05-21T11:35:44.566Z,15.55
2019-05-21T11:38:38.857Z,11.75
2019-05-21T11:40:53.511Z,13.35
2019-05-21T11:43:23.271Z,17.23
2019-05-21T11:45:51.908Z,15.13
2019-05-21T11:48:23.190Z,15.03
2019-05-21T11:53:38.549Z,15.23
2019-05-21T11:56:12.934Z,17.35
2019-05-21T11:58:47.521Z,14.70
2019-05-21T12:01:17.806Z,13.43
2019-05-21T12:03:46.505Z,13.83
2019-05-21T12:06:15.144Z,14.03
2019-05-21T12:08:57.422Z,14.28
2019-05-21T12:11:26.339Z,10.85
2019-05-21T12:13:54.960Z,13.98
2019-05-21T12:16:26.281Z,18.67
2019-05-21T12:21:43.603Z,12.82
2019-05-21T12:24:12.924Z,13.95
2019-05-21T12:26:47.783Z,11.57
2019-05-21T12:29:17.549Z,14.35
2019-05-21T12:31:52.121Z,11.95
2019-05-21T12:34:23.826Z,17.42
2019-05-21T12:36:58.198Z,12.05
2019-05-21T12:39:30.457Z,10.90
2019-05-21T12:42:05.374Z,12.05
2019-05-21T12:44:39.918Z,12.25
2019-05-21T12:47:09.835Z,13.83
2019-05-21T12:49:45.296Z,17.73
2019-05-21T12:52:35.049Z,17.15
2019-05-21T12:55:10.182Z,16.62
2019-05-21T12:57:38.935Z,11.83
2019-05-21T13:00:18.187Z,14.53
2019-05-21T13:02:52.153Z,13.95
2019-05-21T13:05:24.858Z,15.95
2019-05-21T13:08:00.452Z,16.37
2019-05-21T13:10:29.151Z,10.95
2019-05-21T13:13:00.393Z,14.45
2019-05-21T13:18:02.762Z,12.95
2019-05-21T13:20:31.451Z,9.13
2019-05-21T13:23:01.638Z,17.92
2019-05-21T13:25:33.312Z,11.23
2019-05-21T13:28:05.265Z,14.35
2019-05-21T13:30:39.796Z,12.13
2019-05-21T13:33:14.186Z,11.50
2019-05-21T13:35:46.100Z,14.73
2019-05-21T13:38:22.708Z,11.10
2019-05-21T13:40:57.808Z,12.55
2019-05-21T13:43:26.410Z,11.50
2019-05-21T13:45:57.730Z,12.35
2019-05-21T13:51:06.922Z,13.13
2019-05-21T13:53:38.677Z,12.20
2019-05-21T13:56:17.133Z,12.73
2019-05-21T13:58:45.941Z,12.07
2019-05-21T14:01:16.102Z,12.68
2019-05-21T14:03:44.953Z,10.55
2019-05-21T14:06:25.465Z,11.48
2019-05-21T14:08:54.140Z,13.40
2019-05-21T14:11:26.257Z,12.55
2019-05-21T14:14:02.254Z,13.48
2019-05-21T14:16:36.738Z,10.13
2019-05-21T14:19:11.331Z,12.80
2019-05-21T14:21:42.579Z,14.07
2019-05-21T14:26:41.143Z,10.98
2019-05-21T14:29:12.837Z,10.08
2019-05-21T14:31:41.515Z,8.40
2019-05-21T14:34:15.976Z,10.23
2019-05-21T14:36:47.300Z,10.88
2019-05-21T14:42:05.687Z,12.70
2019-05-21T14:44:42.640Z,12.75
2019-05-21T14:47:17.189Z,11.05
2019-05-21T14:49:49.598Z,9.48
2019-05-21T14:52:21.267Z,11.57
2019-05-21T14:54:50.868Z,9.55
2019-05-21T14:57:19.700Z,11.53
2019-05-21T14:59:49.364Z,12.33
2019-05-21T15:02:42.531Z,9.58
2019-05-21T15:05:14.589Z,8.85
2019-05-21T15:07:51.760Z,9.60
2019-05-21T15:10:48.365Z,13.55
2019-05-21T15:13:18.796Z,10.43
2019-05-21T15:15:50.096Z,8.95
2019-05-21T15:20:56.941Z,11.80
2019-05-21T15:23:31.416Z,11.57
2019-05-21T15:26:13.017Z,12.93
2019-05-21T15:28:44.844Z,11.00
2019-05-21T15:31:13.600Z,11.97
2019-05-21T15:33:43.177Z,11.35
2019-05-21T15:36:14.891Z,12.15
2019-05-21T15:38:54.253Z,8.38
2019-05-21T15:41:27.186Z,8.98
2019-05-21T15:44:12.751Z,7.45
2019-05-21T15:46:49.314Z,6.62
2019-05-21T15:49:33.295Z,6.67
2019-05-21T15:51:53.857Z,10.40
2019-05-21T15:54:31.866Z,8.20
2019-05-21T15:57:02.855Z,8.55
2019-05-21T15:59:49.152Z,11.53
2019-05-21T16:03:06.804Z,8.53
2019-05-21T16:05:41.463Z,9.80
2019-05-21T16:08:15.837Z,9.48
2019-05-21T16:10:53.297Z,6.62
2019-05-21T16:13:27.581Z,8.10
2019-05-21T16:15:56.277Z,11.60
2019-05-21T16:18:33.971Z,10.13
2019-05-21T16:21:05.777Z,9.10
2019-05-21T16:23:41.364Z,7.80
2019-05-21T16:26:10.126Z,7.83
2019-05-21T16:28:50.594Z,10.18
2019-05-21T16:31:21.943Z,9.60
2019-05-21T16:33:57.430Z,9.65
2019-05-21T16:36:26.071Z,9.20
2019-05-21T16:38:57.885Z,9.68
2019-05-21T16:41:45.124Z,10.38
2019-05-21T16:44:28.667Z,7.17
2019-05-21T16:47:03.297Z,10.82
2019-05-21T16:49:37.746Z,8.15
2019-05-21T16:52:16.633Z,10.13
2019-05-21T16:54:51.066Z,7.95
2019-05-21T16:57:22.690Z,9.70
2019-05-21T17:00:02.667Z,8.65
2019-05-21T17:02:35.288Z,10.68
2019-05-21T17:05:13.419Z,11.80
2019-05-21T17:07:48.183Z,11.53
2019-05-21T17:10:23.558Z,14.15
2019-05-21T17:12:52.419Z,11.93
2019-05-21T17:15:29.612Z,11.60
2019-05-21T17:18:05.201Z,10.23
2019-05-21T17:20:43.139Z,10.58
2019-05-21T17:23:14.078Z,13.68
2019-05-21T17:25:46.415Z,12.18
2019-05-21T17:28:18.959Z,13.75
2019-05-21T17:30:53.893Z,14.70
2019-05-21T17:33:26.370Z,15.63
2019-05-21T17:36:02.252Z,16.97
2019-05-21T17:38:42.673Z,13.22
2019-05-21T17:41:17.922Z,13.15
2019-05-21T17:43:52.587Z,15.65
2019-05-21T17:46:22.032Z,14.10
2019-05-21T17:48:54.605Z,16.32
2019-05-21T17:51:29.157Z,13.65
2019-05-21T17:53:59.474Z,15.20
2019-05-21T17:56:51.252Z,14.13
2019-05-21T17:59:25.301Z,16.37
2019-05-21T18:01:55.041Z,14.18
2019-05-21T18:04:31.098Z,14.00
2019-05-21T18:07:08.840Z,19.77
2019-05-21T18:09:50.301Z,19.65
2019-05-21T18:15:29.834Z,17.65
2019-05-21T18:18:02.860Z,19.48
2019-05-21T18:20:34.276Z,16.00
2019-05-21T18:23:18.160Z,21.93
2019-05-21T18:26:11.423Z,22.17
2019-05-21T18:28:49.248Z,18.42
2019-05-21T18:31:18.164Z,17.52
2019-05-21T18:33:48.867Z,18.20
2019-05-21T18:36:22.822Z,17.90
2019-05-21T18:38:52.359Z,15.93
2019-05-21T18:41:41.199Z,16.37
2019-05-21T18:44:16.132Z,16.62
2019-05-21T18:46:48.357Z,15.25
2019-05-21T18:49:27.819Z,16.97
2019-05-21T18:51:58.832Z,18.62
2019-05-21T18:54:50.218Z,16.97
2019-05-21T18:57:27.847Z,19.00
2019-05-21T19:00:03.512Z,17.82
2019-05-21T19:02:34.830Z,22.17
2019-05-21T19:05:09.125Z,20.25
2019-05-21T19:07:40.492Z,21.50
2019-05-21T19:10:18.907Z,20.05
2019-05-21T19:12:50.375Z,22.13
2019-05-21T19:15:21.521Z,20.68
2019-05-21T19:18:07.305Z,25.90
2019-05-21T19:20:43.520Z,22.55
2019-05-21T19:23:15.520Z,21.45
2019-05-21T19:25:52.799Z,21.37
2019-05-21T19:28:45.474Z,25.72
2019-05-21T19:31:24.744Z,24.07
2019-05-21T19:34:40.519Z,28.60
2019-05-21T19:37:20.942Z,23.35
2019-05-21T19:40:11.053Z,22.25
2019-05-21T19:42:54.527Z,25.15
2019-05-21T19:45:21.824Z,26.82
2019-05-21T19:48:12.586Z,25.15
2019-05-21T19:50:44.998Z,24.85
2019-05-21T19:53:16.441Z,30.45
2019-05-21T19:56:03.805Z,32.95
2019-05-21T19:58:33.006Z,31.95
2019-05-21T20:01:05.176Z,23.42
2019-05-21T20:03:41.578Z,25.23
2019-05-21T20:06:11.533Z,29.42
2019-05-21T20:08:45.366Z,26.70
2019-05-21T20:11:15.990Z,28.20
2019-05-21T20:13:47.548Z,29.57
2019-05-21T20:16:22.637Z,29.02
2019-05-21T20:18:58.667Z,34.90
2019-05-21T20:21:30.908Z,39.58
2019-05-21T20:24:00.753Z,37.50
2019-05-21T20:26:44.097Z,36.38
2019-05-21T20:29:15.256Z,35.50
2019-05-21T20:31:44.839Z,32.95
2019-05-21T20:34:32.204Z,33.13
2019-05-21T20:37:02.082Z,33.25
2019-05-21T20:39:35.200Z,33.55
2019-05-21T20:42:08.495Z,37.20
2019-05-21T20:44:40.390Z,39.90
2019-05-21T20:47:21.664Z,35.13
2019-05-21T20:49:57.556Z,38.00
2019-05-21T20:52:29.075Z,40.40
2019-05-21T20:55:05.144Z,41.13
2019-05-21T20:57:34.056Z,39.55
2019-05-21T21:00:11.328Z,37.38
2019-05-21T21:02:42.735Z,38.50
2019-05-21T21:05:12.284Z,43.10
2019-05-21T21:07:42.317Z,41.48
2019-05-21T21:10:17.299Z,38.42
2019-05-21T21:12:52.640Z,38.20
2019-05-21T21:15:48.571Z,38.90
2019-05-21T21:18:17.573Z,39.33
2019-05-21T21:21:23.293Z,41.35
2019-05-21T21:24:25.497Z,40.80
2019-05-21T21:27:21.257Z,41.77
2019-05-21T21:30:08.253Z,43.80
2019-05-21T21:33:24.391Z,41.48
2019-05-21T21:35:54.126Z,40.48
2019-05-21T21:38:29.023Z,40.78
2019-05-21T21:41:03.539Z,44.00
2019-05-21T21:44:13.452Z,46.40
2019-05-21T21:46:51.968Z,44.10
2019-05-21T21:49:25.493Z,45.30
2019-05-21T21:52:00.710Z,49.83
2019-05-21T21:54:34.487Z,48.35
2019-05-21T21:57:08.895Z,49.10
2019-05-21T21:59:40.662Z,45.35
2019-05-21T22:02:33.045Z,40.48
2019-05-21T22:05:38.351Z,39.05
2019-05-21T22:08:13.284Z,42.23
2019-05-21T22:10:46.908Z,45.05
2019-05-21T22:13:15.604Z,43.28
2019-05-21T22:15:44.177Z,46.00
2019-05-21T22:18:27.768Z,44.60
2019-05-21T22:21:00.240Z,44.18
2019-05-21T22:23:34.903Z,42.13
2019-05-21T22:26:09.870Z,43.83
2019-05-21T22:28:38.674Z,43.25
2019-05-21T22:31:17.375Z,45.58
2019-05-21T22:33:46.115Z,43.73
2019-05-21T22:36:23.512Z,42.58
2019-05-21T22:38:55.412Z,44.30
2019-05-21T22:41:54.260Z,39.78
2019-05-21T22:44:30.425Z,41.70
2019-05-21T22:47:00.893Z,38.70
2019-05-21T22:50:00.025Z,41.45
2019-05-21T22:52:33.367Z,44.95
2019-05-21T22:55:47.832Z,42.83
2019-05-21T22:58:19.206Z,46.33
2019-05-21T23:00:51.833Z,43.23
2019-05-21T23:03:20.605Z,41.55
2019-05-21T23:05:49.480Z,39.67
2019-05-21T23:08:47.675Z,38.48
2019-05-21T23:11:16.387Z,41.58
2019-05-21T23:13:51.328Z,37.55
2019-05-21T23:16:23.291Z,38.33
2019-05-21T23:19:24.402Z,42.43
2019-05-21T23:21:53.602Z,35.05
2019-05-21T23:24:24.893Z,38.58
2019-05-21T23:27:00.227Z,37.65
2019-05-21T23:29:36.796Z,40.30
2019-05-21T23:32:09.187Z,41.58
2019-05-21T23:34:44.429Z,40.50
2019-05-21T23:37:16.629Z,35.80
2019-05-21T23:39:55.785Z,43.60
2019-05-21T23:42:35.724Z,40.50
2019-05-21T23:45:10.567Z,43.45
2019-05-21T23:48:05.716Z,45.88
2019-05-21T23:50:34.726Z,46.23
2019-05-21T23:53:06.754Z,48.10
2019-05-21T23:55:38.663Z,49.57
2019-05-21T23:58:13.492Z,48.48
